sensor_id;sensor_type;location;lat;lon;timestamp;P1;durP1;ratioP1;P2;durP2;ratioP2
32333;SDS011;18810;53.040;8.850;2024-02-15T00:01:03;32.95;;;17.30;;
32333;SDS011;18810;53.040;8.850;2024-02-15T00:03:30;35.85;;;18.77;;
32333;SDS011;18810;53.040;8.850;2024-02-15T00:05:56;40.08;;;20.42;;
32333;SDS011;18810;53.040;8.850;2024-02-15T00:08:22;35.72;;;19.10;;
32333;SDS011;18810;53.040;8.850;2024-02-15T00:10:51;39.30;;;19.60;;
32333;SDS011;18810;53.040;8.850;2024-02-15T00:13:18;46.10;;;20.85;;
32333;SDS011;18810;53.040;8.850;2024-02-15T00:15:44;41.47;;;20.70;;
32333;SDS011;18810;53.040;8.850;2024-02-15T00:18:13;45.85;;;21.75;;
32333;SDS011;18810;53.040;8.850;2024-02-15T00:20:39;42.47;;;21.20;;
32333;SDS011;18810;53.040;8.850;2024-02-15T00:23:05;50.97;;;23.13;;
32333;SDS011;18810;53.040;8.850;2024-02-15T00:25:31;46.85;;;22.48;;
32333;SDS011;18810;53.040;8.850;2024-02-15T00:27:57;44.53;;;22.15;;
32333;SDS011;18810;53.040;8.850;2024-02-15T00:30:25;49.00;;;23.17;;
32333;SDS011;18810;53.040;8.850;2024-02-15T00:32:52;48.97;;;23.60;;
32333;SDS011;18810;53.040;8.850;2024-02-15T00:35:18;51.30;;;23.58;;
32333;SDS011;18810;53.040;8.850;2024-02-15T00:37:44;46.50;;;23.30;;
32333;SDS011;18810;53.040;8.850;2024-02-15T00:40:10;45.58;;;22.88;;
32333;SDS011;18810;53.040;8.850;2024-02-15T00:42:36;48.28;;;24.63;;
32333;SDS011;18810;53.040;8.850;2024-02-15T00:45:03;48.22;;;23.10;;
32333;SDS011;18810;53.040;8.850;2024-02-15T00:47:30;50.05;;;22.73;;
32333;SDS011;18810;53.040;8.850;2024-02-15T00:49:55;48.92;;;23.40;;
32333;SDS011;18810;53.040;8.850;2024-02-15T00:52:22;42.55;;;22.02;;
32333;SDS011;18810;53.040;8.850;2024-02-15T00:54:48;44.38;;;22.98;;
32333;SDS011;18810;53.040;8.850;2024-02-15T00:57:14;45.80;;;23.05;;
32333;SDS011;18810;53.040;8.850;2024-02-15T00:59:39;49.92;;;23.65;;
32333;SDS011;18810;53.040;8.850;2024-02-15T01:02:05;50.00;;;23.02;;
32333;SDS011;18810;53.040;8.850;2024-02-15T01:04:31;49.22;;;25.13;;
32333;SDS011;18810;53.040;8.850;2024-02-15T01:06:56;48.50;;;23.73;;
32333;SDS011;18810;53.040;8.850;2024-02-15T01:09:23;52.97;;;23.90;;
32333;SDS011;18810;53.040;8.850;2024-02-15T01:11:48;49.88;;;25.30;;
32333;SDS011;18810;53.040;8.850;2024-02-15T01:14:15;49.15;;;24.70;;
32333;SDS011;18810;53.040;8.850;2024-02-15T01:16:41;48.03;;;23.60;;
32333;SDS011;18810;53.040;8.850;2024-02-15T01:19:08;54.08;;;24.98;;
32333;SDS011;18810;53.040;8.850;2024-02-15T01:21:34;48.67;;;24.33;;
32333;SDS011;18810;53.040;8.850;2024-02-15T01:24:01;46.58;;;23.77;;
32333;SDS011;18810;53.040;8.850;2024-02-15T01:26:28;47.00;;;23.73;;
32333;SDS011;18810;53.040;8.850;2024-02-15T01:28:54;50.38;;;23.05;;
32333;SDS011;18810;53.040;8.850;2024-02-15T01:31:21;50.45;;;22.95;;
32333;SDS011;18810;53.040;8.850;2024-02-15T01:33:47;49.88;;;25.13;;
32333;SDS011;18810;53.040;8.850;2024-02-15T01:36:14;46.80;;;23.15;;
32333;SDS011;18810;53.040;8.850;2024-02-15T01:38:43;48.30;;;24.40;;
32333;SDS011;18810;53.040;8.850;2024-02-15T01:41:10;54.20;;;24.95;;
32333;SDS011;18810;53.040;8.850;2024-02-15T01:43:36;49.50;;;24.20;;
32333;SDS011;18810;53.040;8.850;2024-02-15T01:46:07;48.38;;;23.58;;
32333;SDS011;18810;53.040;8.850;2024-02-15T01:48:35;52.55;;;24.95;;
32333;SDS011;18810;53.040;8.850;2024-02-15T01:51:03;54.17;;;25.52;;
32333;SDS011;18810;53.040;8.850;2024-02-15T01:53:30;46.92;;;23.42;;
32333;SDS011;18810;53.040;8.850;2024-02-15T01:55:57;49.83;;;25.10;;
32333;SDS011;18810;53.040;8.850;2024-02-15T01:58:25;47.88;;;23.50;;
32333;SDS011;18810;53.040;8.850;2024-02-15T02:00:52;48.75;;;23.15;;
32333;SDS011;18810;53.040;8.850;2024-02-15T02:03:19;47.78;;;23.25;;
32333;SDS011;18810;53.040;8.850;2024-02-15T02:05:46;48.05;;;22.52;;
32333;SDS011;18810;53.040;8.850;2024-02-15T02:08:12;47.38;;;23.25;;
32333;SDS011;18810;53.040;8.850;2024-02-15T02:10:38;44.00;;;22.42;;
32333;SDS011;18810;53.040;8.850;2024-02-15T02:13:04;46.08;;;23.27;;
32333;SDS011;18810;53.040;8.850;2024-02-15T02:15:31;46.95;;;22.83;;
32333;SDS011;18810;53.040;8.850;2024-02-15T02:17:58;46.92;;;23.42;;
32333;SDS011;18810;53.040;8.850;2024-02-15T02:20:25;43.40;;;22.15;;
32333;SDS011;18810;53.040;8.850;2024-02-15T02:22:51;44.13;;;21.67;;
32333;SDS011;18810;53.040;8.850;2024-02-15T02:25:21;43.33;;;21.92;;
32333;SDS011;18810;53.040;8.850;2024-02-15T02:27:51;43.00;;;20.52;;
32333;SDS011;18810;53.040;8.850;2024-02-15T02:30:17;44.42;;;21.80;;
32333;SDS011;18810;53.040;8.850;2024-02-15T02:32:47;46.67;;;21.77;;
32333;SDS011;18810;53.040;8.850;2024-02-15T02:35:13;45.38;;;22.13;;
32333;SDS011;18810;53.040;8.850;2024-02-15T02:37:41;46.83;;;21.77;;
32333;SDS011;18810;53.040;8.850;2024-02-15T02:40:08;45.20;;;21.95;;
32333;SDS011;18810;53.040;8.850;2024-02-15T02:42:56;42.17;;;22.00;;
32333;SDS011;18810;53.040;8.850;2024-02-15T02:45:21;43.90;;;21.15;;
32333;SDS011;18810;53.040;8.850;2024-02-15T02:47:48;50.72;;;22.70;;
32333;SDS011;18810;53.040;8.850;2024-02-15T02:50:14;46.60;;;22.30;;
32333;SDS011;18810;53.040;8.850;2024-02-15T02:52:40;46.92;;;23.77;;
32333;SDS011;18810;53.040;8.850;2024-02-15T02:55:07;52.55;;;24.73;;
32333;SDS011;18810;53.040;8.850;2024-02-15T02:57:36;45.40;;;22.90;;
32333;SDS011;18810;53.040;8.850;2024-02-15T03:00:06;46.42;;;21.92;;
32333;SDS011;18810;53.040;8.850;2024-02-15T03:02:41;47.13;;;23.60;;
32333;SDS011;18810;53.040;8.850;2024-02-15T03:05:08;59.83;;;24.45;;
32333;SDS011;18810;53.040;8.850;2024-02-15T03:07:36;53.97;;;24.30;;
32333;SDS011;18810;53.040;8.850;2024-02-15T03:10:02;46.70;;;22.75;;
32333;SDS011;18810;53.040;8.850;2024-02-15T03:12:33;48.45;;;22.58;;
32333;SDS011;18810;53.040;8.850;2024-02-15T03:15:05;50.67;;;23.75;;
32333;SDS011;18810;53.040;8.850;2024-02-15T03:17:43;49.53;;;23.02;;
32333;SDS011;18810;53.040;8.850;2024-02-15T03:20:11;51.83;;;22.50;;
32333;SDS011;18810;53.040;8.850;2024-02-15T03:22:56;53.88;;;23.60;;
32333;SDS011;18810;53.040;8.850;2024-02-15T03:25:23;50.97;;;24.63;;
32333;SDS011;18810;53.040;8.850;2024-02-15T03:27:50;53.92;;;24.40;;
32333;SDS011;18810;53.040;8.850;2024-02-15T03:30:19;55.05;;;26.98;;
32333;SDS011;18810;53.040;8.850;2024-02-15T03:32:46;59.83;;;26.95;;
32333;SDS011;18810;53.040;8.850;2024-02-15T03:35:14;51.03;;;24.40;;
32333;SDS011;18810;53.040;8.850;2024-02-15T03:37:40;56.58;;;25.25;;
32333;SDS011;18810;53.040;8.850;2024-02-15T03:40:07;55.13;;;27.25;;
32333;SDS011;18810;53.040;8.850;2024-02-15T03:42:34;56.42;;;26.33;;
32333;SDS011;18810;53.040;8.850;2024-02-15T03:45:03;57.72;;;26.25;;
32333;SDS011;18810;53.040;8.850;2024-02-15T03:47:33;55.77;;;26.80;;
32333;SDS011;18810;53.040;8.850;2024-02-15T03:50:01;55.22;;;25.83;;
32333;SDS011;18810;53.040;8.850;2024-02-15T03:52:27;60.17;;;26.33;;
32333;SDS011;18810;53.040;8.850;2024-02-15T03:54:55;55.92;;;27.40;;
32333;SDS011;18810;53.040;8.850;2024-02-15T03:57:22;51.92;;;25.52;;
32333;SDS011;18810;53.040;8.850;2024-02-15T03:59:48;57.92;;;26.30;;
32333;SDS011;18810;53.040;8.850;2024-02-15T04:02:21;54.40;;;26.98;;
32333;SDS011;18810;53.040;8.850;2024-02-15T04:04:51;58.70;;;26.85;;
32333;SDS011;18810;53.040;8.850;2024-02-15T04:07:19;55.83;;;25.75;;
32333;SDS011;18810;53.040;8.850;2024-02-15T04:09:46;58.08;;;26.17;;
32333;SDS011;18810;53.040;8.850;2024-02-15T04:12:12;50.75;;;25.38;;
32333;SDS011;18810;53.040;8.850;2024-02-15T04:14:42;58.05;;;25.50;;
32333;SDS011;18810;53.040;8.850;2024-02-15T04:17:11;56.25;;;24.58;;
32333;SDS011;18810;53.040;8.850;2024-02-15T04:19:47;50.25;;;24.38;;
32333;SDS011;18810;53.040;8.850;2024-02-15T04:22:15;49.40;;;23.63;;
32333;SDS011;18810;53.040;8.850;2024-02-15T04:24:41;54.50;;;25.48;;
32333;SDS011;18810;53.040;8.850;2024-02-15T04:27:08;47.50;;;22.95;;
32333;SDS011;18810;53.040;8.850;2024-02-15T04:29:38;49.80;;;24.55;;
32333;SDS011;18810;53.040;8.850;2024-02-15T04:32:09;47.42;;;22.60;;
32333;SDS011;18810;53.040;8.850;2024-02-15T04:34:36;46.22;;;22.75;;
32333;SDS011;18810;53.040;8.850;2024-02-15T04:37:02;49.95;;;23.10;;
32333;SDS011;18810;53.040;8.850;2024-02-15T04:39:37;49.85;;;22.52;;
32333;SDS011;18810;53.040;8.850;2024-02-15T04:42:03;47.83;;;23.13;;
32333;SDS011;18810;53.040;8.850;2024-02-15T04:44:31;50.53;;;23.77;;
32333;SDS011;18810;53.040;8.850;2024-02-15T04:47:00;56.97;;;25.33;;
32333;SDS011;18810;53.040;8.850;2024-02-15T04:49:27;49.05;;;23.13;;
32333;SDS011;18810;53.040;8.850;2024-02-15T04:51:54;53.05;;;24.27;;
32333;SDS011;18810;53.040;8.850;2024-02-15T04:54:20;53.33;;;25.48;;
32333;SDS011;18810;53.040;8.850;2024-02-15T04:56:47;54.35;;;24.02;;
32333;SDS011;18810;53.040;8.850;2024-02-15T04:59:13;52.85;;;24.10;;
32333;SDS011;18810;53.040;8.850;2024-02-15T05:01:41;54.53;;;24.88;;
32333;SDS011;18810;53.040;8.850;2024-02-15T05:04:11;57.92;;;25.88;;
32333;SDS011;18810;53.040;8.850;2024-02-15T05:09:05;52.08;;;22.73;;
32333;SDS011;18810;53.040;8.850;2024-02-15T05:11:38;55.13;;;25.25;;
32333;SDS011;18810;53.040;8.850;2024-02-15T05:14:12;55.72;;;25.08;;
32333;SDS011;18810;53.040;8.850;2024-02-15T05:16:44;57.50;;;25.23;;
32333;SDS011;18810;53.040;8.850;2024-02-15T05:19:12;61.28;;;26.60;;
32333;SDS011;18810;53.040;8.850;2024-02-15T05:21:41;55.30;;;24.77;;
32333;SDS011;18810;53.040;8.850;2024-02-15T05:24:10;58.80;;;25.27;;
32333;SDS011;18810;53.040;8.850;2024-02-15T05:26:40;57.38;;;25.33;;
32333;SDS011;18810;53.040;8.850;2024-02-15T05:29:08;63.38;;;26.63;;
32333;SDS011;18810;53.040;8.850;2024-02-15T05:31:36;58.83;;;24.73;;
32333;SDS011;18810;53.040;8.850;2024-02-15T05:34:04;58.53;;;25.85;;
32333;SDS011;18810;53.040;8.850;2024-02-15T05:36:33;61.33;;;27.63;;
32333;SDS011;18810;53.040;8.850;2024-02-15T05:38:59;68.60;;;28.63;;
32333;SDS011;18810;53.040;8.850;2024-02-15T05:41:27;60.65;;;25.80;;
32333;SDS011;18810;53.040;8.850;2024-02-15T05:43:54;59.47;;;27.00;;
32333;SDS011;18810;53.040;8.850;2024-02-15T05:46:23;64.60;;;27.73;;
32333;SDS011;18810;53.040;8.850;2024-02-15T05:48:49;74.60;;;28.63;;
32333;SDS011;18810;53.040;8.850;2024-02-15T05:51:16;65.80;;;27.58;;
32333;SDS011;18810;53.040;8.850;2024-02-15T05:53:42;67.32;;;29.20;;
32333;SDS011;18810;53.040;8.850;2024-02-15T05:56:09;62.92;;;27.42;;
32333;SDS011;18810;53.040;8.850;2024-02-15T05:58:38;62.10;;;25.95;;
32333;SDS011;18810;53.040;8.850;2024-02-15T06:01:05;68.97;;;28.15;;
32333;SDS011;18810;53.040;8.850;2024-02-15T06:03:32;62.00;;;25.75;;
32333;SDS011;18810;53.040;8.850;2024-02-15T06:06:00;64.90;;;25.58;;
32333;SDS011;18810;53.040;8.850;2024-02-15T06:08:30;57.78;;;25.65;;
32333;SDS011;18810;53.040;8.850;2024-02-15T06:10:56;60.97;;;26.00;;
32333;SDS011;18810;53.040;8.850;2024-02-15T06:13:22;59.92;;;26.20;;
32333;SDS011;18810;53.040;8.850;2024-02-15T06:15:49;64.00;;;26.63;;
32333;SDS011;18810;53.040;8.850;2024-02-15T06:18:23;57.47;;;25.97;;
32333;SDS011;18810;53.040;8.850;2024-02-15T06:20:52;60.15;;;24.02;;
32333;SDS011;18810;53.040;8.850;2024-02-15T06:23:18;57.22;;;24.33;;
32333;SDS011;18810;53.040;8.850;2024-02-15T06:25:45;54.80;;;23.73;;
32333;SDS011;18810;53.040;8.850;2024-02-15T06:28:14;57.00;;;24.08;;
32333;SDS011;18810;53.040;8.850;2024-02-15T06:30:58;51.75;;;22.38;;
32333;SDS011;18810;53.040;8.850;2024-02-15T06:33:42;50.33;;;22.10;;
32333;SDS011;18810;53.040;8.850;2024-02-15T06:36:26;51.42;;;22.48;;
32333;SDS011;18810;53.040;8.850;2024-02-15T06:39:10;54.00;;;22.65;;
32333;SDS011;18810;53.040;8.850;2024-02-15T06:41:54;48.72;;;21.00;;
32333;SDS011;18810;53.040;8.850;2024-02-15T06:44:21;51.15;;;22.13;;
32333;SDS011;18810;53.040;8.850;2024-02-15T06:46:49;53.47;;;22.63;;
32333;SDS011;18810;53.040;8.850;2024-02-15T06:49:15;47.88;;;22.50;;
32333;SDS011;18810;53.040;8.850;2024-02-15T06:51:41;56.90;;;22.05;;
32333;SDS011;18810;53.040;8.850;2024-02-15T06:54:08;56.33;;;22.90;;
32333;SDS011;18810;53.040;8.850;2024-02-15T06:56:38;59.50;;;22.80;;
32333;SDS011;18810;53.040;8.850;2024-02-15T06:59:04;58.58;;;23.45;;
32333;SDS011;18810;53.040;8.850;2024-02-15T07:01:30;49.13;;;20.90;;
32333;SDS011;18810;53.040;8.850;2024-02-15T07:03:59;54.58;;;24.17;;
32333;SDS011;18810;53.040;8.850;2024-02-15T07:06:25;59.85;;;25.55;;
32333;SDS011;18810;53.040;8.850;2024-02-15T07:08:52;58.40;;;24.08;;
32333;SDS011;18810;53.040;8.850;2024-02-15T07:11:20;53.58;;;24.33;;
32333;SDS011;18810;53.040;8.850;2024-02-15T07:13:46;60.38;;;26.75;;
32333;SDS011;18810;53.040;8.850;2024-02-15T07:16:12;60.45;;;24.52;;
32333;SDS011;18810;53.040;8.850;2024-02-15T07:18:40;59.72;;;25.95;;
32333;SDS011;18810;53.040;8.850;2024-02-15T07:21:06;60.63;;;25.88;;
32333;SDS011;18810;53.040;8.850;2024-02-15T07:23:38;66.65;;;26.88;;
32333;SDS011;18810;53.040;8.850;2024-02-15T07:26:06;64.10;;;26.20;;
32333;SDS011;18810;53.040;8.850;2024-02-15T07:28:33;68.30;;;27.08;;
32333;SDS011;18810;53.040;8.850;2024-02-15T07:30:59;62.90;;;27.90;;
32333;SDS011;18810;53.040;8.850;2024-02-15T07:33:27;65.75;;;28.48;;
32333;SDS011;18810;53.040;8.850;2024-02-15T07:35:54;60.17;;;27.20;;
32333;SDS011;18810;53.040;8.850;2024-02-15T07:38:21;65.10;;;28.35;;
32333;SDS011;18810;53.040;8.850;2024-02-15T07:40:48;68.43;;;29.33;;
32333;SDS011;18810;53.040;8.850;2024-02-15T07:43:14;67.20;;;30.40;;
32333;SDS011;18810;53.040;8.850;2024-02-15T07:45:40;66.90;;;30.00;;
32333;SDS011;18810;53.040;8.850;2024-02-15T07:48:06;69.47;;;30.45;;
32333;SDS011;18810;53.040;8.850;2024-02-15T07:50:32;65.28;;;29.27;;
32333;SDS011;18810;53.040;8.850;2024-02-15T07:52:58;70.65;;;32.30;;
32333;SDS011;18810;53.040;8.850;2024-02-15T07:55:24;67.10;;;31.88;;
32333;SDS011;18810;53.040;8.850;2024-02-15T07:57:50;69.97;;;31.67;;
32333;SDS011;18810;53.040;8.850;2024-02-15T08:00:16;68.80;;;31.17;;
32333;SDS011;18810;53.040;8.850;2024-02-15T08:02:42;69.10;;;32.63;;
32333;SDS011;18810;53.040;8.850;2024-02-15T08:05:12;72.53;;;33.17;;
32333;SDS011;18810;53.040;8.850;2024-02-15T08:07:43;93.78;;;44.60;;
32333;SDS011;18810;53.040;8.850;2024-02-15T08:10:10;90.07;;;41.97;;
32333;SDS011;18810;53.040;8.850;2024-02-15T08:12:42;86.07;;;45.17;;
32333;SDS011;18810;53.040;8.850;2024-02-15T08:15:08;78.70;;;37.17;;
32333;SDS011;18810;53.040;8.850;2024-02-15T08:17:41;75.82;;;38.65;;
32333;SDS011;18810;53.040;8.850;2024-02-15T08:20:09;63.30;;;35.40;;
32333;SDS011;18810;53.040;8.850;2024-02-15T08:22:36;92.32;;;48.80;;
32333;SDS011;18810;53.040;8.850;2024-02-15T08:25:05;76.38;;;34.80;;
32333;SDS011;18810;53.040;8.850;2024-02-15T08:27:31;87.82;;;43.90;;
32333;SDS011;18810;53.040;8.850;2024-02-15T08:29:59;88.97;;;49.95;;
32333;SDS011;18810;53.040;8.850;2024-02-15T08:32:24;80.60;;;40.33;;
32333;SDS011;18810;53.040;8.850;2024-02-15T08:34:50;79.50;;;39.20;;
32333;SDS011;18810;53.040;8.850;2024-02-15T08:37:15;75.90;;;37.40;;
32333;SDS011;18810;53.040;8.850;2024-02-15T08:39:42;79.72;;;37.00;;
32333;SDS011;18810;53.040;8.850;2024-02-15T08:42:09;85.38;;;42.90;;
32333;SDS011;18810;53.040;8.850;2024-02-15T08:44:36;83.88;;;40.85;;
32333;SDS011;18810;53.040;8.850;2024-02-15T08:47:02;89.18;;;41.60;;
32333;SDS011;18810;53.040;8.850;2024-02-15T08:49:29;90.30;;;43.78;;
32333;SDS011;18810;53.040;8.850;2024-02-15T08:51:55;92.50;;;41.80;;
32333;SDS011;18810;53.040;8.850;2024-02-15T08:54:21;91.68;;;41.78;;
32333;SDS011;18810;53.040;8.850;2024-02-15T08:56:48;95.25;;;41.25;;
32333;SDS011;18810;53.040;8.850;2024-02-15T08:59:14;85.95;;;40.50;;
32333;SDS011;18810;53.040;8.850;2024-02-15T09:01:42;93.53;;;41.90;;
32333;SDS011;18810;53.040;8.850;2024-02-15T09:04:08;99.93;;;46.10;;
32333;SDS011;18810;53.040;8.850;2024-02-15T09:06:34;93.78;;;41.60;;
32333;SDS011;18810;53.040;8.850;2024-02-15T09:08:59;95.35;;;45.90;;
32333;SDS011;18810;53.040;8.850;2024-02-15T09:11:31;94.00;;;44.45;;
32333;SDS011;18810;53.040;8.850;2024-02-15T09:13:57;98.30;;;43.22;;
32333;SDS011;18810;53.040;8.850;2024-02-15T09:16:23;93.78;;;44.55;;
32333;SDS011;18810;53.040;8.850;2024-02-15T09:18:48;96.60;;;41.95;;
32333;SDS011;18810;53.040;8.850;2024-02-15T09:21:14;85.55;;;41.25;;
32333;SDS011;18810;53.040;8.850;2024-02-15T09:23:40;94.57;;;40.65;;
32333;SDS011;18810;53.040;8.850;2024-02-15T09:26:06;95.78;;;42.00;;
32333;SDS011;18810;53.040;8.850;2024-02-15T09:28:35;94.05;;;43.83;;
32333;SDS011;18810;53.040;8.850;2024-02-15T09:31:01;97.13;;;43.63;;
32333;SDS011;18810;53.040;8.850;2024-02-15T09:33:26;99.05;;;43.45;;
32333;SDS011;18810;53.040;8.850;2024-02-15T09:35:52;96.90;;;43.25;;
32333;SDS011;18810;53.040;8.850;2024-02-15T09:38:23;85.63;;;41.70;;
32333;SDS011;18810;53.040;8.850;2024-02-15T09:40:50;92.10;;;40.47;;
32333;SDS011;18810;53.040;8.850;2024-02-15T09:43:16;91.90;;;41.75;;
32333;SDS011;18810;53.040;8.850;2024-02-15T09:45:42;86.93;;;41.58;;
32333;SDS011;18810;53.040;8.850;2024-02-15T09:48:08;91.88;;;42.13;;
32333;SDS011;18810;53.040;8.850;2024-02-15T09:50:36;92.93;;;42.03;;
32333;SDS011;18810;53.040;8.850;2024-02-15T09:53:07;90.25;;;42.00;;
32333;SDS011;18810;53.040;8.850;2024-02-15T09:55:34;93.93;;;42.05;;
32333;SDS011;18810;53.040;8.850;2024-02-15T09:58:07;96.65;;;43.28;;
32333;SDS011;18810;53.040;8.850;2024-02-15T10:00:34;89.68;;;40.65;;
32333;SDS011;18810;53.040;8.850;2024-02-15T10:03:00;87.85;;;41.50;;
32333;SDS011;18810;53.040;8.850;2024-02-15T10:05:30;84.35;;;41.28;;
32333;SDS011;18810;53.040;8.850;2024-02-15T10:07:56;91.82;;;41.65;;
32333;SDS011;18810;53.040;8.850;2024-02-15T10:15:29;84.20;;;41.00;;
32333;SDS011;18810;53.040;8.850;2024-02-15T10:17:55;84.82;;;39.58;;
32333;SDS011;18810;53.040;8.850;2024-02-15T10:20:24;88.80;;;41.08;;
32333;SDS011;18810;53.040;8.850;2024-02-15T10:22:53;90.40;;;39.30;;
32333;SDS011;18810;53.040;8.850;2024-02-15T10:25:38;83.20;;;38.88;;
32333;SDS011;18810;53.040;8.850;2024-02-15T10:28:06;80.47;;;38.60;;
32333;SDS011;18810;53.040;8.850;2024-02-15T10:30:36;83.47;;;39.08;;
32333;SDS011;18810;53.040;8.850;2024-02-15T10:33:03;76.72;;;37.17;;
32333;SDS011;18810;53.040;8.850;2024-02-15T10:35:29;76.65;;;37.63;;
32333;SDS011;18810;53.040;8.850;2024-02-15T10:38:10;81.07;;;38.55;;
32333;SDS011;18810;53.040;8.850;2024-02-15T10:40:38;73.18;;;35.30;;
32333;SDS011;18810;53.040;8.850;2024-02-15T10:43:08;75.70;;;35.53;;
32333;SDS011;18810;53.040;8.850;2024-02-15T10:45:38;72.70;;;35.50;;
32333;SDS011;18810;53.040;8.850;2024-02-15T10:48:05;69.38;;;34.85;;
32333;SDS011;18810;53.040;8.850;2024-02-15T10:50:35;69.13;;;34.20;;
32333;SDS011;18810;53.040;8.850;2024-02-15T10:53:04;71.25;;;35.47;;
32333;SDS011;18810;53.040;8.850;2024-02-15T10:55:48;70.32;;;34.15;;
32333;SDS011;18810;53.040;8.850;2024-02-15T10:58:39;67.53;;;33.55;;
32333;SDS011;18810;53.040;8.850;2024-02-15T11:01:12;59.90;;;31.80;;
32333;SDS011;18810;53.040;8.850;2024-02-15T11:03:52;60.72;;;31.25;;
32333;SDS011;18810;53.040;8.850;2024-02-15T11:06:26;57.20;;;31.50;;
32333;SDS011;18810;53.040;8.850;2024-02-15T11:08:52;54.08;;;29.77;;
32333;SDS011;18810;53.040;8.850;2024-02-15T11:11:19;55.05;;;29.38;;
32333;SDS011;18810;53.040;8.850;2024-02-15T11:13:48;56.58;;;28.13;;
32333;SDS011;18810;53.040;8.850;2024-02-15T11:19:05;53.70;;;28.17;;
32333;SDS011;18810;53.040;8.850;2024-02-15T11:24:29;51.97;;;28.45;;
32333;SDS011;18810;53.040;8.850;2024-02-15T11:27:01;49.25;;;28.10;;
32333;SDS011;18810;53.040;8.850;2024-02-15T11:35:19;51.22;;;27.30;;
32333;SDS011;18810;53.040;8.850;2024-02-15T11:42:44;49.50;;;28.42;;
32333;SDS011;18810;53.040;8.850;2024-02-15T11:45:11;47.50;;;27.48;;
32333;SDS011;18810;53.040;8.850;2024-02-15T11:47:38;48.25;;;26.35;;
32333;SDS011;18810;53.040;8.850;2024-02-15T11:50:07;49.65;;;28.25;;
32333;SDS011;18810;53.040;8.850;2024-02-15T11:52:38;51.70;;;27.58;;
32333;SDS011;18810;53.040;8.850;2024-02-15T11:55:06;50.53;;;27.63;;
32333;SDS011;18810;53.040;8.850;2024-02-15T11:57:35;48.70;;;27.50;;
32333;SDS011;18810;53.040;8.850;2024-02-15T12:00:18;48.83;;;27.15;;
32333;SDS011;18810;53.040;8.850;2024-02-15T12:03:08;46.90;;;27.08;;
32333;SDS011;18810;53.040;8.850;2024-02-15T12:05:54;45.05;;;27.00;;
32333;SDS011;18810;53.040;8.850;2024-02-15T12:08:38;43.65;;;26.65;;
32333;SDS011;18810;53.040;8.850;2024-02-15T12:11:22;42.10;;;25.98;;
32333;SDS011;18810;53.040;8.850;2024-02-15T12:14:11;40.53;;;26.27;;
32333;SDS011;18810;53.040;8.850;2024-02-15T12:17:06;41.38;;;26.55;;
32333;SDS011;18810;53.040;8.850;2024-02-15T12:19:52;40.90;;;25.42;;
32333;SDS011;18810;53.040;8.850;2024-02-15T12:22:21;48.25;;;27.95;;
32333;SDS011;18810;53.040;8.850;2024-02-15T12:25:01;42.65;;;26.27;;
32333;SDS011;18810;53.040;8.850;2024-02-15T12:27:55;37.38;;;23.38;;
32333;SDS011;18810;53.040;8.850;2024-02-15T12:30:23;43.17;;;25.10;;
32333;SDS011;18810;53.040;8.850;2024-02-15T12:32:51;33.90;;;23.05;;
32333;SDS011;18810;53.040;8.850;2024-02-15T12:35:21;35.78;;;22.50;;
32333;SDS011;18810;53.040;8.850;2024-02-15T12:37:49;33.65;;;23.13;;
32333;SDS011;18810;53.040;8.850;2024-02-15T12:43:01;38.25;;;22.60;;
32333;SDS011;18810;53.040;8.850;2024-02-15T12:45:30;35.38;;;21.88;;
32333;SDS011;18810;53.040;8.850;2024-02-15T12:47:57;32.97;;;22.40;;
32333;SDS011;18810;53.040;8.850;2024-02-15T12:50:27;33.80;;;22.13;;
32333;SDS011;18810;53.040;8.850;2024-02-15T12:52:53;34.25;;;22.83;;
32333;SDS011;18810;53.040;8.850;2024-02-15T12:55:28;34.33;;;21.70;;
32333;SDS011;18810;53.040;8.850;2024-02-15T12:57:59;33.83;;;22.33;;
32333;SDS011;18810;53.040;8.850;2024-02-15T13:00:29;30.30;;;21.23;;
32333;SDS011;18810;53.040;8.850;2024-02-15T13:02:59;31.85;;;21.65;;
32333;SDS011;18810;53.040;8.850;2024-02-15T13:05:28;29.35;;;21.00;;
32333;SDS011;18810;53.040;8.850;2024-02-15T13:07:54;30.35;;;20.58;;
32333;SDS011;18810;53.040;8.850;2024-02-15T13:10:21;28.25;;;20.88;;
32333;SDS011;18810;53.040;8.850;2024-02-15T13:12:47;28.35;;;20.35;;
32333;SDS011;18810;53.040;8.850;2024-02-15T13:15:14;31.23;;;20.13;;
32333;SDS011;18810;53.040;8.850;2024-02-15T13:17:45;28.23;;;21.48;;
32333;SDS011;18810;53.040;8.850;2024-02-15T13:20:21;29.77;;;21.35;;
32333;SDS011;18810;53.040;8.850;2024-02-15T13:25:40;28.58;;;20.60;;
32333;SDS011;18810;53.040;8.850;2024-02-15T13:28:08;28.25;;;20.10;;
32333;SDS011;18810;53.040;8.850;2024-02-15T13:30:35;27.17;;;19.48;;
32333;SDS011;18810;53.040;8.850;2024-02-15T13:33:02;29.35;;;20.35;;
32333;SDS011;18810;53.040;8.850;2024-02-15T13:35:28;26.10;;;20.25;;
32333;SDS011;18810;53.040;8.850;2024-02-15T13:37:54;28.23;;;19.98;;
32333;SDS011;18810;53.040;8.850;2024-02-15T13:40:23;27.00;;;19.38;;
32333;SDS011;18810;53.040;8.850;2024-02-15T13:42:51;25.10;;;18.48;;
32333;SDS011;18810;53.040;8.850;2024-02-15T13:45:19;23.00;;;18.52;;
32333;SDS011;18810;53.040;8.850;2024-02-15T13:47:47;23.73;;;18.23;;
32333;SDS011;18810;53.040;8.850;2024-02-15T13:50:14;25.45;;;18.00;;
32333;SDS011;18810;53.040;8.850;2024-02-15T13:52:40;24.10;;;17.75;;
32333;SDS011;18810;53.040;8.850;2024-02-15T13:55:09;24.08;;;17.60;;
32333;SDS011;18810;53.040;8.850;2024-02-15T13:57:37;20.38;;;17.20;;
32333;SDS011;18810;53.040;8.850;2024-02-15T14:00:04;27.33;;;18.10;;
32333;SDS011;18810;53.040;8.850;2024-02-15T14:02:31;25.70;;;17.58;;
32333;SDS011;18810;53.040;8.850;2024-02-15T14:04:57;23.00;;;18.42;;
32333;SDS011;18810;53.040;8.850;2024-02-15T14:07:22;21.33;;;17.00;;
32333;SDS011;18810;53.040;8.850;2024-02-15T14:09:48;22.13;;;17.10;;
32333;SDS011;18810;53.040;8.850;2024-02-15T14:12:14;22.73;;;18.92;;
32333;SDS011;18810;53.040;8.850;2024-02-15T14:14:40;23.33;;;18.08;;
32333;SDS011;18810;53.040;8.850;2024-02-15T14:17:07;25.58;;;18.85;;
32333;SDS011;18810;53.040;8.850;2024-02-15T14:19:34;25.67;;;18.30;;
32333;SDS011;18810;53.040;8.850;2024-02-15T14:22:00;24.42;;;18.00;;
32333;SDS011;18810;53.040;8.850;2024-02-15T14:24:26;23.52;;;16.98;;
32333;SDS011;18810;53.040;8.850;2024-02-15T14:26:52;26.30;;;17.92;;
32333;SDS011;18810;53.040;8.850;2024-02-15T14:29:18;28.08;;;18.55;;
32333;SDS011;18810;53.040;8.850;2024-02-15T14:31:52;22.70;;;18.27;;
32333;SDS011;18810;53.040;8.850;2024-02-15T14:34:37;27.23;;;18.80;;
32333;SDS011;18810;53.040;8.850;2024-02-15T14:37:02;25.25;;;18.85;;
32333;SDS011;18810;53.040;8.850;2024-02-15T14:39:31;24.95;;;18.30;;
32333;SDS011;18810;53.040;8.850;2024-02-15T14:41:56;27.77;;;18.50;;
32333;SDS011;18810;53.040;8.850;2024-02-15T14:44:22;22.95;;;18.08;;
32333;SDS011;18810;53.040;8.850;2024-02-15T14:46:48;26.20;;;19.85;;
32333;SDS011;18810;53.040;8.850;2024-02-15T14:49:14;26.40;;;18.23;;
32333;SDS011;18810;53.040;8.850;2024-02-15T14:51:41;25.08;;;19.58;;
32333;SDS011;18810;53.040;8.850;2024-02-15T14:54:07;23.95;;;18.58;;
32333;SDS011;18810;53.040;8.850;2024-02-15T14:56:33;27.48;;;19.50;;
32333;SDS011;18810;53.040;8.850;2024-02-15T14:58:59;29.40;;;18.95;;